createdAt,value
2019-03-18T00:01:44.756Z,2.47
2019-03-18T00:04:15.927Z,2.55
2019-03-18T00:06:48.746Z,2.48
2019-03-18T00:09:19.852Z,2.54
2019-03-18T00:11:50.890Z,2.56
2019-03-18T00:14:22.044Z,2.57
2019-03-18T00:16:53.212Z,2.62
2019-03-18T00:19:24.205Z,2.63
2019-03-18T00:21:55.295Z,2.63
2019-03-18T00:24:26.402Z,2.43
2019-03-18T00:26:57.598Z,2.33
2019-03-18T00:29:29.177Z,2.29
2019-03-18T00:32:00.290Z,2.27
2019-03-18T00:34:31.464Z,2.26
2019-03-18T00:37:02.755Z,2.28
2019-03-18T00:39:33.795Z,2.30
2019-03-18T00:42:04.828Z,2.31
2019-03-18T00:44:35.873Z,2.30
2019-03-18T00:47:07.012Z,2.36
2019-03-18T00:49:38.049Z,2.37
2019-03-18T00:52:09.095Z,2.39
2019-03-18T00:54:40.207Z,2.27
2019-03-18T00:57:11.322Z,2.35
2019-03-18T00:59:42.386Z,2.31
2019-03-18T01:02:13.504Z,2.29
2019-03-18T01:04:44.664Z,2.29
2019-03-18T01:07:15.799Z,2.08
2019-03-18T01:09:46.866Z,2.08
2019-03-18T01:12:17.983Z,1.99
2019-03-18T01:14:48.983Z,2.09
2019-03-18T01:17:20.030Z,2.11
2019-03-18T01:19:51.176Z,2.09
2019-03-18T01:22:22.254Z,2.14
2019-03-18T01:24:53.355Z,2.11
2019-03-18T01:27:25.576Z,2.06
2019-03-18T01:29:56.762Z,1.88
2019-03-18T01:32:27.921Z,1.84
2019-03-18T01:34:59.054Z,1.98
2019-03-18T01:37:30.319Z,2.09
2019-03-18T01:40:01.339Z,2.15
2019-03-18T01:42:32.531Z,2.18
2019-03-18T01:45:04.625Z,2.24
2019-03-18T01:47:35.713Z,2.25
2019-03-18T01:50:16.720Z,2.31
2019-03-18T01:52:47.752Z,2.28
2019-03-18T01:55:18.922Z,2.26
2019-03-18T01:57:50.008Z,2.13
2019-03-18T02:00:21.024Z,2.10
2019-03-18T02:02:52.150Z,2.17
2019-03-18T02:05:23.241Z,2.08
2019-03-18T02:07:54.367Z,2.06
2019-03-18T02:10:25.356Z,1.71
2019-03-18T02:12:56.459Z,1.56
2019-03-18T02:15:27.504Z,1.41
2019-03-18T02:17:58.493Z,1.36
2019-03-18T02:20:29.588Z,1.45
2019-03-18T02:23:00.630Z,1.48
2019-03-18T02:25:31.762Z,1.39
2019-03-18T02:28:03.301Z,1.40
2019-03-18T02:30:34.361Z,1.38
2019-03-18T02:33:05.436Z,1.43
2019-03-18T02:35:36.420Z,1.46
2019-03-18T02:38:07.633Z,1.36
2019-03-18T02:40:38.820Z,1.22
2019-03-18T02:43:09.934Z,1.35
2019-03-18T02:45:41.015Z,1.42
2019-03-18T02:48:12.051Z,1.48
2019-03-18T02:50:43.252Z,1.54
2019-03-18T02:53:14.340Z,1.36
2019-03-18T02:55:45.459Z,1.50
2019-03-18T02:58:16.671Z,1.50
2019-03-18T03:00:47.666Z,1.49
2019-03-18T03:03:18.870Z,1.45
2019-03-18T03:05:49.952Z,1.42
2019-03-18T03:08:21.049Z,1.51
2019-03-18T03:10:53.380Z,1.32
2019-03-18T03:13:24.564Z,1.21
2019-03-18T03:15:55.675Z,1.32
2019-03-18T03:18:26.760Z,1.13
2019-03-18T03:20:57.789Z,1.03
2019-03-18T03:23:30.380Z,1.00
2019-03-18T03:26:01.391Z,0.91
2019-03-18T03:28:32.518Z,0.82
2019-03-18T03:31:03.966Z,0.84
2019-03-18T03:33:35.068Z,0.83
2019-03-18T03:36:06.142Z,0.76
2019-03-18T03:38:37.210Z,0.73
2019-03-18T03:41:08.236Z,0.72
2019-03-18T03:43:39.276Z,0.78
2019-03-18T03:46:10.315Z,0.78
2019-03-18T03:48:41.292Z,0.86
2019-03-18T03:51:12.467Z,0.91
2019-03-18T03:53:43.556Z,0.72
2019-03-18T03:56:14.599Z,0.72
2019-03-18T03:58:46.118Z,0.74
2019-03-18T04:01:17.176Z,0.84
2019-03-18T04:03:48.190Z,0.93
2019-03-18T04:06:19.254Z,1.08
2019-03-18T04:08:50.238Z,1.27
2019-03-18T04:11:21.342Z,1.28
2019-03-18T04:13:52.416Z,1.20
2019-03-18T04:16:23.544Z,1.12
2019-03-18T04:18:54.625Z,1.23
2019-03-18T04:21:25.728Z,1.23
2019-03-18T04:23:56.770Z,1.10
2019-03-18T04:26:28.932Z,1.11
2019-03-18T04:29:00.156Z,1.24
2019-03-18T04:31:31.226Z,1.33
2019-03-18T04:34:02.323Z,1.34
2019-03-18T04:36:33.406Z,1.27
2019-03-18T04:39:06.230Z,1.56
2019-03-18T04:41:37.537Z,1.67
2019-03-18T04:44:08.712Z,1.93
2019-03-18T04:46:39.780Z,1.98
2019-03-18T04:49:10.970Z,2.16
2019-03-18T04:51:42.115Z,2.33
2019-03-18T04:54:13.157Z,2.19
2019-03-18T04:56:44.198Z,2.24
2019-03-18T04:59:15.381Z,2.18
2019-03-18T05:01:46.398Z,2.42
2019-03-18T05:04:17.524Z,2.51
2019-03-18T05:06:48.571Z,2.57
2019-03-18T05:09:19.604Z,2.63
2019-03-18T05:11:50.753Z,2.61
2019-03-18T05:14:21.796Z,2.69
2019-03-18T05:16:52.782Z,2.79
2019-03-18T05:19:23.873Z,2.92
2019-03-18T05:21:54.868Z,3.01
2019-03-18T05:24:25.971Z,3.12
2019-03-18T05:26:57.111Z,3.15
2019-03-18T05:29:28.339Z,3.13
2019-03-18T05:31:59.390Z,3.21
2019-03-18T05:34:30.593Z,3.18
2019-03-18T05:37:01.759Z,3.23
2019-03-18T05:39:32.784Z,3.45
2019-03-18T05:42:04.002Z,3.58
2019-03-18T05:44:35.727Z,3.54
2019-03-18T05:47:06.766Z,3.53
2019-03-18T05:49:37.878Z,3.57
2019-03-18T05:52:09.040Z,3.59
2019-03-18T05:54:40.069Z,3.73
2019-03-18T05:57:11.252Z,3.75
2019-03-18T05:59:42.497Z,3.80
2019-03-18T06:02:13.667Z,3.77
2019-03-18T06:04:44.790Z,4.05
2019-03-18T06:07:15.816Z,4.19
2019-03-18T06:09:46.961Z,4.21
2019-03-18T06:12:18.166Z,4.22
2019-03-18T06:14:49.355Z,4.00
2019-03-18T06:17:20.565Z,4.19
2019-03-18T06:19:52.033Z,4.15
2019-03-18T06:22:23.212Z,4.19
2019-03-18T06:24:54.408Z,4.32
2019-03-18T06:27:26.326Z,4.59
2019-03-18T06:29:57.562Z,4.74
2019-03-18T06:32:28.855Z,4.80
2019-03-18T06:35:00.350Z,4.84
2019-03-18T06:37:31.449Z,4.69
2019-03-18T06:40:02.649Z,4.83
2019-03-18T06:42:33.724Z,4.65
2019-03-18T06:45:07.448Z,4.81
2019-03-18T06:47:38.790Z,4.84
2019-03-18T06:50:11.316Z,5.02
2019-03-18T06:52:42.421Z,5.15
2019-03-18T06:55:14.667Z,5.36
2019-03-18T06:57:45.766Z,5.63
2019-03-18T07:00:17.412Z,5.55
2019-03-18T07:02:48.433Z,5.63
2019-03-18T07:05:20.355Z,5.73
2019-03-18T07:07:51.485Z,5.65
2019-03-18T07:10:22.615Z,5.80
2019-03-18T07:12:53.854Z,5.97
2019-03-18T07:15:25.754Z,6.06
2019-03-18T07:17:56.766Z,6.25
2019-03-18T07:20:27.961Z,6.28
2019-03-18T07:22:59.253Z,6.46
2019-03-18T07:25:30.327Z,6.57
2019-03-18T07:28:01.512Z,6.68
2019-03-18T07:30:32.586Z,6.64
2019-03-18T07:33:03.668Z,6.68
2019-03-18T07:35:34.726Z,6.84
2019-03-18T07:38:05.917Z,6.84
2019-03-18T07:40:37.153Z,6.87
2019-03-18T07:43:08.203Z,6.92
2019-03-18T07:45:39.389Z,7.12
2019-03-18T07:48:12.542Z,7.22
2019-03-18T07:50:43.404Z,7.22
2019-03-18T07:53:14.506Z,7.16
2019-03-18T07:55:45.738Z,7.32
2019-03-18T07:58:16.786Z,7.40
2019-03-18T08:00:48.225Z,7.43
2019-03-18T08:03:19.390Z,7.56
2019-03-18T08:05:50.612Z,7.55
2019-03-18T08:08:21.817Z,7.55
2019-03-18T08:10:53.001Z,7.57
2019-03-18T08:13:24.314Z,7.57
2019-03-18T08:15:55.537Z,7.64
2019-03-18T08:18:26.678Z,7.90
2019-03-18T08:20:57.756Z,7.90
2019-03-18T08:23:29.097Z,8.05
2019-03-18T08:26:00.216Z,8.13
2019-03-18T08:28:31.380Z,8.07
2019-03-18T08:31:03.728Z,8.18
2019-03-18T08:33:34.742Z,8.23
2019-03-18T08:36:05.892Z,8.26
2019-03-18T08:38:37.036Z,8.32
2019-03-18T08:41:08.256Z,8.36
2019-03-18T08:43:39.648Z,8.44
2019-03-18T08:46:10.800Z,8.51
2019-03-18T08:48:42.045Z,8.57
2019-03-18T08:51:13.213Z,8.56
2019-03-18T08:53:45.460Z,8.69
2019-03-18T08:56:16.985Z,8.66
2019-03-18T08:58:48.207Z,8.61
2019-03-18T09:01:19.250Z,8.68
2019-03-18T09:03:50.397Z,8.79
2019-03-18T09:06:21.538Z,8.95
2019-03-18T09:08:52.791Z,9.02
2019-03-18T09:11:23.829Z,9.06
2019-03-18T09:13:55.089Z,9.16
2019-03-18T09:16:26.374Z,9.23
2019-03-18T09:19:08.147Z,9.20
2019-03-18T09:21:30.781Z,9.24
2019-03-18T09:24:02.636Z,9.25
2019-03-18T09:26:34.027Z,9.35
2019-03-18T09:29:05.289Z,9.18
2019-03-18T09:31:36.506Z,9.32
2019-03-18T09:34:07.669Z,9.29
2019-03-18T09:36:38.852Z,9.29
2019-03-18T09:39:09.992Z,9.25
2019-03-18T09:41:41.213Z,9.32
2019-03-18T09:44:12.578Z,9.48
2019-03-18T09:46:43.675Z,9.49
2019-03-18T09:49:21.418Z,9.52
2019-03-18T09:51:47.669Z,9.46
2019-03-18T09:54:19.325Z,9.53
2019-03-18T09:56:50.826Z,9.54
2019-03-18T09:59:22.316Z,9.50
2019-03-18T10:01:53.384Z,9.51
2019-03-18T10:04:24.585Z,9.41
2019-03-18T10:06:55.782Z,9.40
2019-03-18T10:09:26.884Z,9.47
2019-03-18T10:11:58.514Z,9.46
2019-03-18T10:14:29.641Z,9.44
2019-03-18T10:17:09.576Z,9.60
2019-03-18T10:19:34.016Z,9.59
2019-03-18T10:22:05.185Z,9.50
2019-03-18T10:24:36.366Z,9.54
2019-03-18T10:27:07.435Z,9.60
2019-03-18T10:29:38.693Z,9.80
2019-03-18T10:32:09.710Z,9.66
2019-03-18T10:34:40.739Z,9.68
2019-03-18T10:37:12.032Z,9.68
2019-03-18T10:39:43.285Z,9.64
2019-03-18T10:42:14.517Z,9.74
2019-03-18T10:44:45.522Z,9.79
2019-03-18T10:47:16.548Z,9.74
2019-03-18T10:49:47.615Z,9.88
2019-03-18T10:52:18.727Z,9.87
2019-03-18T10:54:49.858Z,9.90
2019-03-18T10:57:20.944Z,9.89
2019-03-18T10:59:51.876Z,9.88
2019-03-18T11:02:22.917Z,9.89
2019-03-18T11:04:54.008Z,9.87
2019-03-18T11:07:24.984Z,9.99
2019-03-18T11:09:56.000Z,9.98
2019-03-18T11:12:26.957Z,9.95
2019-03-18T11:14:58.015Z,10.01
2019-03-18T11:17:29.206Z,10.03
2019-03-18T11:20:00.295Z,10.06
2019-03-18T11:22:31.513Z,10.11
2019-03-18T11:25:02.634Z,10.15
2019-03-18T11:27:33.625Z,10.05
2019-03-18T11:30:09.844Z,10.05
2019-03-18T11:32:41.795Z,10.20
2019-03-18T11:35:12.821Z,10.15
2019-03-18T11:37:43.924Z,10.22
2019-03-18T11:40:17.139Z,10.17
2019-03-18T11:42:48.218Z,10.30
2019-03-18T11:45:19.531Z,10.30
2019-03-18T11:47:50.827Z,10.32
2019-03-18T11:50:22.251Z,10.40
2019-03-18T11:52:53.656Z,10.35
2019-03-18T11:55:27.016Z,10.35
2019-03-18T11:57:58.085Z,10.41
2019-03-18T12:00:29.139Z,10.46
2019-03-18T12:03:00.335Z,10.40
2019-03-18T12:05:31.447Z,10.49
2019-03-18T12:08:02.462Z,10.56
2019-03-18T12:10:33.474Z,10.63
2019-03-18T12:13:04.347Z,10.56
2019-03-18T12:15:36.648Z,10.42
2019-03-18T12:18:07.921Z,10.48
2019-03-18T12:20:39.013Z,10.47
2019-03-18T12:23:09.924Z,10.50
2019-03-18T12:25:40.969Z,10.52
2019-03-18T12:28:11.925Z,10.53
2019-03-18T12:30:42.917Z,10.60
2019-03-18T12:33:14.016Z,10.58
2019-03-18T12:35:45.100Z,10.59
2019-03-18T12:38:16.138Z,10.59
2019-03-18T12:40:47.980Z,10.56
2019-03-18T12:43:19.077Z,10.56
2019-03-18T12:45:50.158Z,10.59
2019-03-18T12:48:21.388Z,10.67
2019-03-18T12:50:56.176Z,10.64
2019-03-18T12:53:25.126Z,10.69
2019-03-18T12:55:56.309Z,10.65
2019-03-18T12:58:28.455Z,10.68
2019-03-18T13:01:11.866Z,10.70
2019-03-18T13:03:32.265Z,10.70
2019-03-18T13:06:03.820Z,10.63
2019-03-18T13:08:34.933Z,10.70
2019-03-18T13:11:06.006Z,10.60
2019-03-18T13:13:37.108Z,10.67
2019-03-18T13:16:08.293Z,10.74
2019-03-18T13:18:39.502Z,10.74
2019-03-18T13:21:10.650Z,10.73
2019-03-18T13:23:41.666Z,10.73
2019-03-18T13:26:12.981Z,10.73
2019-03-18T13:28:45.363Z,10.66
2019-03-18T13:31:16.576Z,10.63
2019-03-18T13:33:47.737Z,10.71
2019-03-18T13:36:18.768Z,10.79
2019-03-18T13:38:49.790Z,10.76
2019-03-18T13:41:20.955Z,10.80
2019-03-18T13:43:51.969Z,10.71
2019-03-18T13:46:23.178Z,10.70
2019-03-18T13:48:54.276Z,10.79
2019-03-18T13:51:25.350Z,10.71
2019-03-18T13:53:56.477Z,10.77
2019-03-18T13:56:28.189Z,10.82
2019-03-18T13:58:59.295Z,10.77
2019-03-18T14:01:30.508Z,10.76
2019-03-18T14:04:01.597Z,10.81
2019-03-18T14:06:33.761Z,10.76
2019-03-18T14:09:06.882Z,10.80
2019-03-18T14:11:38.024Z,10.82
2019-03-18T14:14:09.167Z,10.83
2019-03-18T14:16:40.211Z,10.72
2019-03-18T14:19:11.752Z,10.81
2019-03-18T14:21:43.237Z,10.83
2019-03-18T14:24:14.579Z,10.73
2019-03-18T14:26:45.935Z,10.76
2019-03-18T14:29:17.172Z,10.66
2019-03-18T14:31:48.496Z,10.59
2019-03-18T14:34:19.614Z,10.68
2019-03-18T14:36:51.882Z,10.56
2019-03-18T14:39:22.991Z,10.57
2019-03-18T14:41:54.186Z,10.59
2019-03-18T14:44:25.289Z,10.61
2019-03-18T14:46:56.337Z,10.66
2019-03-18T14:49:27.463Z,10.57
2019-03-18T14:51:58.584Z,10.52
2019-03-18T14:54:29.612Z,10.56
2019-03-18T14:57:00.694Z,10.58
2019-03-18T14:59:32.330Z,10.47
2019-03-18T15:02:03.420Z,10.43
2019-03-18T15:04:34.531Z,10.47
2019-03-18T15:07:05.577Z,10.39
2019-03-18T15:09:36.718Z,10.35
2019-03-18T15:12:07.878Z,10.25
2019-03-18T15:14:39.010Z,10.16
2019-03-18T15:17:10.166Z,10.13
2019-03-18T15:19:41.161Z,10.06
2019-03-18T15:22:12.349Z,10.00
2019-03-18T15:24:43.554Z,10.02
2019-03-18T15:27:14.726Z,9.98
2019-03-18T15:29:45.689Z,9.85
2019-03-18T15:32:16.607Z,9.73
2019-03-18T15:34:47.616Z,9.67
2019-03-18T15:37:18.594Z,9.58
2019-03-18T15:39:49.645Z,9.73
2019-03-18T15:42:20.740Z,9.62
2019-03-18T15:44:51.727Z,9.61
2019-03-18T15:47:22.761Z,9.55
2019-03-18T15:49:53.911Z,9.45
2019-03-18T15:52:25.127Z,9.33
2019-03-18T15:54:56.192Z,9.28
2019-03-18T15:57:29.929Z,9.33
2019-03-18T15:59:59.716Z,9.26
2019-03-18T16:02:30.641Z,9.33
2019-03-18T16:05:01.600Z,9.16
2019-03-18T16:07:32.769Z,9.11
2019-03-18T16:10:05.017Z,9.16
2019-03-18T16:12:35.981Z,9.02
2019-03-18T16:15:09.626Z,8.83
2019-03-18T16:17:41.651Z,8.81
2019-03-18T16:20:20.657Z,8.74
2019-03-18T16:22:51.616Z,9.00
2019-03-18T16:25:22.710Z,8.88
2019-03-18T16:27:53.664Z,8.70
2019-03-18T16:30:24.593Z,8.60
2019-03-18T16:32:55.652Z,8.49
2019-03-18T16:35:26.647Z,8.68
2019-03-18T16:37:58.135Z,8.70
2019-03-18T16:40:29.260Z,8.71
2019-03-18T16:43:00.355Z,8.71
2019-03-18T16:45:31.489Z,8.57
2019-03-18T16:48:02.718Z,8.57
2019-03-18T16:50:33.914Z,8.54
2019-03-18T16:53:05.136Z,8.36
2019-03-18T16:55:36.186Z,8.46
2019-03-18T16:58:07.223Z,8.53
2019-03-18T17:00:38.217Z,8.61
2019-03-18T17:03:09.492Z,8.54
2019-03-18T17:05:40.449Z,8.71
2019-03-18T17:08:11.454Z,8.60
2019-03-18T17:10:42.427Z,8.54
2019-03-18T17:13:13.582Z,8.50
2019-03-18T17:15:44.577Z,8.61
2019-03-18T17:18:17.986Z,8.51
2019-03-18T17:20:48.712Z,8.50
2019-03-18T17:23:20.981Z,8.40
2019-03-18T17:25:52.323Z,8.36
2019-03-18T17:28:23.369Z,8.17
2019-03-18T17:30:54.523Z,8.17
2019-03-18T17:33:25.683Z,8.13
2019-03-18T17:35:56.734Z,8.07
2019-03-18T17:38:28.010Z,8.04
2019-03-18T17:40:59.000Z,8.12
2019-03-18T17:43:30.336Z,8.02
2019-03-18T17:46:01.471Z,8.04
2019-03-18T17:48:32.652Z,7.88
2019-03-18T17:51:03.887Z,8.02
2019-03-18T17:53:35.003Z,7.95
2019-03-18T17:56:06.288Z,7.88
2019-03-18T17:58:37.507Z,7.93
2019-03-18T18:01:08.642Z,7.97
2019-03-18T18:03:39.699Z,7.88
2019-03-18T18:06:10.788Z,7.79
2019-03-18T18:08:42.091Z,7.90
2019-03-18T18:11:13.294Z,7.85
2019-03-18T18:13:44.460Z,7.74
2019-03-18T18:16:15.581Z,7.71
2019-03-18T18:18:46.797Z,7.92
2019-03-18T18:21:17.941Z,7.80
2019-03-18T18:23:49.243Z,7.91
2019-03-18T18:26:20.294Z,7.86
2019-03-18T18:28:51.336Z,7.88
2019-03-18T18:31:22.319Z,7.88
2019-03-18T18:33:53.788Z,7.84
2019-03-18T18:36:25.424Z,7.85
2019-03-18T18:38:56.633Z,7.74
2019-03-18T18:41:27.851Z,7.86
2019-03-18T18:43:59.162Z,7.75
2019-03-18T18:46:30.208Z,7.66
2019-03-18T18:49:02.145Z,7.62
2019-03-18T18:51:33.269Z,7.49
2019-03-18T18:54:04.675Z,7.49
2019-03-18T18:56:35.771Z,7.51
2019-03-18T18:59:06.956Z,7.52
2019-03-18T19:01:38.053Z,7.56
2019-03-18T19:04:09.194Z,7.48
2019-03-18T19:06:40.218Z,7.37
2019-03-18T19:09:11.267Z,7.28
2019-03-18T19:11:42.356Z,7.19
2019-03-18T19:14:13.428Z,7.13
2019-03-18T19:16:44.493Z,7.03
2019-03-18T19:19:15.633Z,6.98
2019-03-18T19:21:47.083Z,6.94
2019-03-18T19:24:18.392Z,6.92
2019-03-18T19:26:49.468Z,6.89
2019-03-18T19:29:20.637Z,6.81
2019-03-18T19:31:51.819Z,6.84
2019-03-18T19:34:22.933Z,6.73
2019-03-18T19:36:54.170Z,6.77
2019-03-18T19:39:25.184Z,6.75
2019-03-18T19:41:56.183Z,6.70
2019-03-18T19:44:27.228Z,6.61
2019-03-18T19:46:58.216Z,6.57
2019-03-18T19:49:29.272Z,6.53
2019-03-18T19:52:00.312Z,6.45
2019-03-18T19:54:31.454Z,6.39
2019-03-18T19:57:03.621Z,6.35
2019-03-18T19:59:34.669Z,6.26
2019-03-18T20:02:05.706Z,6.26
2019-03-18T20:04:36.676Z,6.21
2019-03-18T20:07:07.742Z,6.24
2019-03-18T20:09:38.882Z,6.19
2019-03-18T20:12:09.992Z,6.16
2019-03-18T20:14:41.175Z,6.16
2019-03-18T20:17:12.291Z,6.09
2019-03-18T20:19:43.459Z,6.10
2019-03-18T20:22:14.557Z,6.03
2019-03-18T20:24:45.692Z,6.03
2019-03-18T20:27:16.707Z,6.04
2019-03-18T20:29:47.808Z,5.92
2019-03-18T20:32:18.815Z,5.92
2019-03-18T20:34:49.871Z,5.93
2019-03-18T20:37:20.890Z,5.89
2019-03-18T20:39:51.957Z,5.83
2019-03-18T20:42:23.097Z,5.78
2019-03-18T20:44:54.157Z,5.78
2019-03-18T20:47:25.283Z,5.78
2019-03-18T20:49:57.494Z,5.75
2019-03-18T20:52:29.005Z,5.67
2019-03-18T20:55:00.160Z,5.62
2019-03-18T20:57:31.569Z,5.61
2019-03-18T21:00:03.275Z,5.55
2019-03-18T21:02:35.831Z,5.53
2019-03-18T21:05:09.070Z,5.50
2019-03-18T21:07:40.257Z,5.45
2019-03-18T21:10:16.408Z,5.31
2019-03-18T21:12:47.513Z,5.31
2019-03-18T21:15:18.861Z,5.29
2019-03-18T21:17:49.973Z,5.22
2019-03-18T21:20:23.420Z,5.15
2019-03-18T21:22:53.909Z,5.15
2019-03-18T21:25:24.829Z,5.18
2019-03-18T21:27:56.290Z,5.13
2019-03-18T21:30:27.362Z,5.11
2019-03-18T21:32:58.492Z,5.09
2019-03-18T21:35:29.529Z,5.07
2019-03-18T21:38:00.820Z,5.03
2019-03-18T21:40:31.899Z,5.04
2019-03-18T21:43:02.981Z,5.01
2019-03-18T21:45:34.084Z,4.98
2019-03-18T21:48:05.133Z,4.99
2019-03-18T21:50:36.175Z,4.96
2019-03-18T21:53:07.523Z,4.94
2019-03-18T21:55:38.603Z,4.95
2019-03-18T21:58:10.092Z,4.82
2019-03-18T22:00:41.191Z,4.82
2019-03-18T22:03:12.445Z,4.77
2019-03-18T22:05:43.550Z,4.67
2019-03-18T22:08:14.836Z,4.67
2019-03-18T22:10:45.909Z,4.62
2019-03-18T22:13:17.004Z,4.66
2019-03-18T22:15:49.276Z,4.63
2019-03-18T22:18:22.973Z,4.61
2019-03-18T22:20:56.597Z,4.61
2019-03-18T22:23:29.839Z,4.57
2019-03-18T22:26:03.253Z,4.56
2019-03-18T22:28:35.236Z,4.53
2019-03-18T22:31:06.742Z,4.51
2019-03-18T22:33:37.803Z,4.47
2019-03-18T22:36:08.943Z,4.46
2019-03-18T22:38:39.932Z,4.40
2019-03-18T22:41:11.029Z,4.42
2019-03-18T22:43:42.006Z,4.42
2019-03-18T22:46:13.011Z,4.40
2019-03-18T22:48:44.180Z,4.37
2019-03-18T22:51:15.236Z,4.30
2019-03-18T22:53:46.346Z,4.33
2019-03-18T22:56:17.548Z,4.28
2019-03-18T22:58:48.631Z,4.26
2019-03-18T23:01:19.760Z,4.29
2019-03-18T23:03:50.861Z,4.23
2019-03-18T23:06:21.956Z,4.23
2019-03-18T23:08:54.162Z,4.24
2019-03-18T23:11:25.149Z,4.22
2019-03-18T23:13:56.303Z,4.25
2019-03-18T23:16:27.288Z,4.13
2019-03-18T23:18:59.531Z,4.13
2019-03-18T23:21:30.525Z,4.08
2019-03-18T23:24:01.567Z,4.10
2019-03-18T23:26:32.790Z,3.98
2019-03-18T23:29:03.857Z,3.97
2019-03-18T23:31:34.989Z,4.00
2019-03-18T23:34:06.181Z,3.91
2019-03-18T23:36:37.315Z,3.91
2019-03-18T23:39:08.733Z,3.85
2019-03-18T23:41:39.909Z,3.89
2019-03-18T23:44:11.172Z,3.79
2019-03-18T23:46:42.222Z,3.78
2019-03-18T23:49:13.390Z,3.77
2019-03-18T23:51:44.565Z,3.82
2019-03-18T23:54:15.751Z,3.81
2019-03-18T23:56:46.765Z,3.82
2019-03-18T23:59:17.853Z,3.84
